Palm Springs, CA

1:58 AM PST on December 26, 2014 (GMT -0800)
CHINO CANYON | Change Station
CLOSE
Current Station
Personal Weather Station
Location: Palm Springs, CA
Elevation: 630 ft
Nearby Weather Stations

Elev 630 ft 33.85 °N, 116.55 °W | Updated 1 second ago

Clear
Clear
45.4 °F
Feels Like 45 °F
N
0.5
Wind Variable Wind from West
Gusts 1.1 mph

Today
High -- | Low -- °F
--% Chance of Precip.
Yesterday
High -- | Low -- °F
Precip. -- in
6:49 AM 4:44 PM
Waxing Crescent, 24% visible
Pressure 29.99 in
Visibility 10.0 miles
Clouds Clear
Windchill 45 °F
Dew Point 18 °F
Humidity 33%
Rainfall 0.00 in
Snow Depth Not available.
UV 0 out of 12
Pollen 6.00 out of 12
Air Quality Not available.
Flu Activity Not available.
METAR KPSP 260953Z AUTO 24005KT 10SM CLR 09/M09 A2998 RMK AO2 SLP154 T00941089 TSNO

More Conditions Fewer Conditions

Pressure 29.99 in
Visibility 10.0 miles
Clouds Clear
Windchill 45 °F
Dew Point 18 °F
Humidity 33%
Rainfall 0.00 in
Snow Depth Not available.
UV 0 out of 12
Pollen 6.00 out of 12
Air Quality Not available.
Flu Activity Not available.
METAR KPSP 260953Z AUTO 24005KT 10SM CLR 09/M09 A2998 RMK AO2 SLP154 T00941089 TSNO

More Conditions Fewer Conditions

10-Day Weather Forecast

Almanac

Astronomy

Dec. 26, 2014 Rise Set
Actual Time
Civil Twilight
Nautical Twilight
Astronomical Twilight
Moon
Length of Visible Light
Length of Day
Tomorrow will be .
, % of the Moon is Illuminated

Today's Extremes

State Highs State Lows

Community

WunderPhotos

Upload Photos

1,780,568 photos uploaded!

WunderBlogs® & News

Nearby

Air Quality

  Air Quality AQ Index Pollutant
Not available.

Snow Depth

Station Depth Elevation

Earthquake Activity

City Distance Mag. Time & Date
Minimum magnitude displayed is 2.5.

Coastal Water Temperatures

Place Temperature

Nearby Weather Stations